createdAt,value
2022-10-02T00:00:16.705Z,13.67
2022-10-02T00:03:23.399Z,14.00
2022-10-02T00:06:40.058Z,19.30
2022-10-02T00:09:47.412Z,16.70
2022-10-02T00:12:54.153Z,16.20
2022-10-02T00:15:58.657Z,14.80
2022-10-02T00:19:01.828Z,12.80
2022-10-02T00:22:30.864Z,20.87
2022-10-02T00:25:41.436Z,13.83
2022-10-02T00:28:55.109Z,10.73
2022-10-02T00:32:13.247Z,12.17
2022-10-02T00:35:36.850Z,22.53
2022-10-02T00:38:48.619Z,14.40
2022-10-02T00:42:18.495Z,9.37
2022-10-02T00:45:56.466Z,18.67
2022-10-02T00:49:18.298Z,16.20
2022-10-02T00:52:36.354Z,15.00
2022-10-02T00:55:46.694Z,14.27
2022-10-02T00:59:14.293Z,20.37
2022-10-02T01:02:46.539Z,13.73
2022-10-02T01:05:50.637Z,14.37
2022-10-02T01:22:08.649Z,15.50
2022-10-02T01:25:12.760Z,13.93
2022-10-02T01:28:15.509Z,15.17
2022-10-02T01:31:18.642Z,13.23
2022-10-02T01:34:21.967Z,17.90
2022-10-02T01:37:30.149Z,11.80
2022-10-02T01:40:36.112Z,13.50
2022-10-02T01:43:40.858Z,14.17
2022-10-02T01:46:54.025Z,10.43
2022-10-02T01:50:08.381Z,12.83
2022-10-02T01:53:17.056Z,15.80
2022-10-02T01:56:30.894Z,13.80
2022-10-02T01:59:46.979Z,12.87
2022-10-02T02:03:09.234Z,8.93
2022-10-02T02:06:22.550Z,15.83
2022-10-02T02:09:33.442Z,13.57
2022-10-02T02:12:42.727Z,15.23
2022-10-02T02:15:53.481Z,14.53
2022-10-02T02:19:05.126Z,11.77
2022-10-02T02:22:13.396Z,13.63
2022-10-02T02:25:19.596Z,11.50
2022-10-02T02:28:25.339Z,11.13
2022-10-02T02:31:34.117Z,12.50
2022-10-02T02:34:41.629Z,11.03
2022-10-02T02:37:46.691Z,11.93
2022-10-02T02:40:50.267Z,15.13
2022-10-02T02:44:00.432Z,10.07
2022-10-02T02:47:08.873Z,13.03
2022-10-02T02:50:15.798Z,10.00
2022-10-02T02:53:22.168Z,11.93
2022-10-02T02:56:27.969Z,14.60
2022-10-02T02:59:33.508Z,16.33
2022-10-02T03:02:36.473Z,13.33
2022-10-02T03:05:45.492Z,11.83
2022-10-02T03:08:51.553Z,15.17
2022-10-02T03:12:02.363Z,8.50
2022-10-02T03:15:25.430Z,11.27
2022-10-02T03:18:39.725Z,16.30
2022-10-02T03:21:51.896Z,15.23
2022-10-02T03:25:01.367Z,13.43
2022-10-02T03:28:08.765Z,11.73
2022-10-02T03:31:15.441Z,10.73
2022-10-02T03:34:18.937Z,9.40
2022-10-02T03:37:22.074Z,8.53
2022-10-02T03:40:26.104Z,8.60
2022-10-02T03:43:31.161Z,7.80
2022-10-02T03:46:35.294Z,9.30
2022-10-02T03:49:38.007Z,6.43
2022-10-02T03:52:41.455Z,13.33
2022-10-02T03:55:47.678Z,4.23
2022-10-02T03:58:54.247Z,10.87
2022-10-02T04:02:01.158Z,9.27
2022-10-02T04:05:12.506Z,4.77
2022-10-02T04:08:19.463Z,9.73
2022-10-02T04:11:30.151Z,5.97
2022-10-02T04:14:39.195Z,9.57
2022-10-02T04:17:48.774Z,12.67
2022-10-02T04:20:56.021Z,8.50
2022-10-02T04:24:05.355Z,13.27
2022-10-02T04:27:16.637Z,14.00
2022-10-02T04:30:20.746Z,9.90
2022-10-02T04:33:26.583Z,11.90
2022-10-02T04:36:43.210Z,11.97
2022-10-02T04:39:57.862Z,7.27
2022-10-02T04:43:17.117Z,7.97
2022-10-02T04:46:59.180Z,8.60
2022-10-02T04:50:18.021Z,8.23
2022-10-02T04:53:33.577Z,10.03
2022-10-02T04:56:53.382Z,9.30
2022-10-02T05:00:07.224Z,7.77
2022-10-02T05:03:32.937Z,8.90
2022-10-02T05:06:49.978Z,7.70
2022-10-02T05:10:01.763Z,9.93
2022-10-02T05:13:16.177Z,7.90
2022-10-02T05:16:34.127Z,8.87
2022-10-02T05:19:57.125Z,10.93
2022-10-02T05:23:18.762Z,11.87
2022-10-02T05:26:45.222Z,19.03
2022-10-02T05:30:10.829Z,14.23
2022-10-02T05:33:33.057Z,13.90
2022-10-02T05:36:50.474Z,14.47
2022-10-02T05:40:00.565Z,12.13
2022-10-02T05:43:07.235Z,8.87
2022-10-02T05:46:15.491Z,9.73
2022-10-02T05:49:21.437Z,12.53
2022-10-02T05:52:29.019Z,12.63
2022-10-02T05:55:38.798Z,10.60
2022-10-02T05:58:51.352Z,13.30
2022-10-02T06:01:59.164Z,13.33
2022-10-02T06:05:05.866Z,17.60
2022-10-02T06:08:14.560Z,14.67
2022-10-02T06:11:24.018Z,11.93
2022-10-02T06:14:32.034Z,14.40
2022-10-02T06:17:39.249Z,19.67
2022-10-02T06:20:47.433Z,15.47
2022-10-02T06:23:54.499Z,20.70
2022-10-02T06:27:03.273Z,19.37
2022-10-02T06:30:07.743Z,14.07
2022-10-02T06:33:16.885Z,19.20
2022-10-02T06:37:02.699Z,13.90
2022-10-02T06:40:22.359Z,11.70
2022-10-02T06:43:42.119Z,10.63
2022-10-02T06:46:57.843Z,10.10
2022-10-02T06:50:16.028Z,13.93
2022-10-02T06:53:38.182Z,10.03
2022-10-02T06:56:53.530Z,13.87
2022-10-02T07:00:05.612Z,9.07
2022-10-02T07:03:27.157Z,9.80
2022-10-02T07:06:46.859Z,10.43
2022-10-02T07:10:17.032Z,6.20
2022-10-02T07:13:34.222Z,9.90
2022-10-02T07:17:01.470Z,8.70
2022-10-02T07:20:32.169Z,7.00
2022-10-02T07:23:45.481Z,8.70
2022-10-02T07:26:54.868Z,8.40
2022-10-02T07:30:02.943Z,10.37
2022-10-02T07:33:15.197Z,4.90
2022-10-02T07:36:29.529Z,8.07
2022-10-02T07:39:46.112Z,8.07
2022-10-02T07:43:12.562Z,5.23
2022-10-02T07:46:19.943Z,7.07
2022-10-02T07:49:38.103Z,7.37
2022-10-02T07:52:47.806Z,11.10
2022-10-02T07:55:53.653Z,8.33
2022-10-02T07:59:00.737Z,9.87
2022-10-02T08:02:16.532Z,9.03
2022-10-02T08:05:24.405Z,9.57
2022-10-02T08:08:32.734Z,7.67
2022-10-02T08:11:43.303Z,14.30
2022-10-02T08:14:53.952Z,9.83
2022-10-02T08:18:16.402Z,6.93
2022-10-02T08:21:27.040Z,6.70
2022-10-02T08:24:37.286Z,7.07
2022-10-02T08:27:52.602Z,9.33
2022-10-02T08:30:55.108Z,7.63
2022-10-02T08:33:58.450Z,7.40
2022-10-02T08:37:13.338Z,6.73
2022-10-02T08:40:46.799Z,9.97
2022-10-02T08:44:22.004Z,13.63
2022-10-02T08:48:05.268Z,6.33
2022-10-02T08:51:40.753Z,9.77
2022-10-02T08:55:35.355Z,9.97
2022-10-02T08:59:21.313Z,14.60
2022-10-02T09:03:09.438Z,8.33
2022-10-02T09:06:44.930Z,7.67
2022-10-02T09:10:28.199Z,15.57
2022-10-02T09:13:51.774Z,12.00
2022-10-02T09:17:14.550Z,12.97
2022-10-02T09:20:42.157Z,12.93
2022-10-02T09:24:30.889Z,13.33
2022-10-02T09:28:14.909Z,8.43
2022-10-02T09:31:50.739Z,11.23
2022-10-02T09:35:40.186Z,13.00
2022-10-02T09:39:10.819Z,13.23
2022-10-02T09:42:49.238Z,15.67
2022-10-02T09:46:21.682Z,13.53
2022-10-02T09:49:47.492Z,10.90
2022-10-02T09:53:28.758Z,10.40
2022-10-02T09:57:00.887Z,15.20
2022-10-02T10:00:19.982Z,9.60
2022-10-02T10:03:48.970Z,13.17
2022-10-02T10:07:17.280Z,14.30
2022-10-02T10:10:52.369Z,8.17
2022-10-02T10:14:12.654Z,12.57
2022-10-02T10:18:00.491Z,8.27
2022-10-02T10:21:29.402Z,8.20
2022-10-02T10:24:59.817Z,8.50
2022-10-02T10:28:39.390Z,5.43
2022-10-02T10:32:35.607Z,8.00
2022-10-02T10:35:53.786Z,9.40
2022-10-02T10:39:04.917Z,11.37
2022-10-02T10:43:06.520Z,7.63
2022-10-02T10:46:33.682Z,6.33
2022-10-02T10:50:02.202Z,8.17
2022-10-02T10:53:59.588Z,13.20
2022-10-02T10:57:13.066Z,6.83
2022-10-02T11:00:24.680Z,6.73
2022-10-02T11:03:48.575Z,8.88
2022-10-02T11:07:07.783Z,10.77
2022-10-02T11:10:25.856Z,9.30
2022-10-02T11:13:51.233Z,9.35
2022-10-02T11:17:22.037Z,11.65
2022-10-02T11:20:47.957Z,9.75
2022-10-02T11:24:13.486Z,14.43
2022-10-02T11:27:50.438Z,7.97
2022-10-02T11:31:07.151Z,11.20
2022-10-02T11:34:45.858Z,17.47
2022-10-02T11:38:10.498Z,10.47
2022-10-02T11:41:32.063Z,12.23
2022-10-02T11:44:48.263Z,11.00
2022-10-02T11:48:12.320Z,13.55
2022-10-02T11:51:33.704Z,11.68
2022-10-02T11:54:47.235Z,14.00
2022-10-02T11:58:04.231Z,15.45
2022-10-02T12:01:22.394Z,10.70
2022-10-02T12:04:40.587Z,12.40
2022-10-02T12:07:52.252Z,10.00
2022-10-02T12:11:03.015Z,11.13
2022-10-02T12:14:15.369Z,12.07
2022-10-02T12:17:55.422Z,12.57
2022-10-02T12:21:26.079Z,9.87
2022-10-02T12:24:58.414Z,13.30
2022-10-02T12:28:12.336Z,10.07
2022-10-02T12:31:22.051Z,11.50
2022-10-02T12:34:39.543Z,12.57
2022-10-02T12:37:51.125Z,13.33
2022-10-02T12:41:08.526Z,11.07
2022-10-02T12:45:11.581Z,11.47
2022-10-02T12:48:29.313Z,14.40
2022-10-02T12:51:41.397Z,16.35
2022-10-02T12:55:18.213Z,13.60
2022-10-02T12:58:27.636Z,11.88
2022-10-02T13:02:06.103Z,9.93
2022-10-02T13:05:44.645Z,14.63
2022-10-02T13:09:09.013Z,13.77
2022-10-02T13:12:20.983Z,9.02
2022-10-02T13:15:35.757Z,9.63
2022-10-02T13:18:58.787Z,12.23
2022-10-02T13:22:10.829Z,14.95
2022-10-02T13:25:26.257Z,12.95
2022-10-02T13:28:57.517Z,12.07
2022-10-02T13:32:12.938Z,9.25
2022-10-02T13:35:38.342Z,10.05
2022-10-02T13:38:59.736Z,9.18
2022-10-02T13:42:21.208Z,12.70
2022-10-02T13:45:32.978Z,12.52
2022-10-02T13:48:46.720Z,14.48
2022-10-02T13:52:01.178Z,14.10
2022-10-02T13:55:18.429Z,18.97
2022-10-02T13:58:36.713Z,20.20
2022-10-02T14:01:50.725Z,12.33
2022-10-02T14:05:00.452Z,26.20
2022-10-02T14:08:24.164Z,17.27
2022-10-02T14:11:38.090Z,12.30
2022-10-02T14:14:56.239Z,13.03
2022-10-02T14:18:25.493Z,16.60
2022-10-02T14:21:32.336Z,18.13
2022-10-02T14:25:04.065Z,15.33
2022-10-02T14:28:26.672Z,14.70
2022-10-02T14:31:53.621Z,14.27
2022-10-02T14:35:12.133Z,13.07
2022-10-02T14:38:28.873Z,12.90
2022-10-02T14:42:04.798Z,17.53
2022-10-02T14:45:21.831Z,13.20
2022-10-02T14:48:39.556Z,16.90
2022-10-02T14:52:15.949Z,12.83
2022-10-02T14:55:44.067Z,20.13
2022-10-02T14:59:03.210Z,16.60
2022-10-02T15:02:25.058Z,19.27
2022-10-02T15:05:48.069Z,12.90
2022-10-02T15:08:55.769Z,13.60
2022-10-02T15:12:13.985Z,19.40
2022-10-02T15:15:24.959Z,15.97
2022-10-02T15:18:40.086Z,12.73
2022-10-02T15:21:48.154Z,14.40
2022-10-02T15:24:57.342Z,15.27
2022-10-02T15:28:35.189Z,20.40
2022-10-02T15:31:44.128Z,13.70
2022-10-02T15:34:54.515Z,20.07
2022-10-02T15:38:21.625Z,20.30
2022-10-02T15:41:41.463Z,18.13
2022-10-02T15:45:05.993Z,19.67
2022-10-02T15:48:28.893Z,17.80
2022-10-02T15:51:43.158Z,17.23
2022-10-02T15:54:55.034Z,14.00
2022-10-02T15:58:22.100Z,15.53
2022-10-02T16:01:43.793Z,17.20
2022-10-02T16:05:00.559Z,23.67
2022-10-02T16:08:30.790Z,18.17
2022-10-02T16:11:57.073Z,22.30
2022-10-02T16:15:14.055Z,18.17
2022-10-02T16:18:29.868Z,20.20
2022-10-02T16:22:00.270Z,23.17
2022-10-02T16:25:17.367Z,17.27
2022-10-02T16:28:32.699Z,17.60
2022-10-02T16:31:45.444Z,11.70
2022-10-02T16:35:11.145Z,17.70
2022-10-02T16:38:23.233Z,21.00
2022-10-02T16:41:38.215Z,24.60
2022-10-02T16:45:04.185Z,20.33
2022-10-02T16:48:13.618Z,21.30
2022-10-02T16:51:36.677Z,15.10
2022-10-02T16:54:47.840Z,21.00
2022-10-02T16:57:59.171Z,17.57
2022-10-02T17:01:07.148Z,25.43
2022-10-02T17:04:36.813Z,23.63
2022-10-02T17:07:53.807Z,20.97
2022-10-02T17:11:09.421Z,25.27
2022-10-02T17:14:18.984Z,15.50
2022-10-02T17:17:24.796Z,23.17
2022-10-02T17:20:32.430Z,19.07
2022-10-02T17:23:42.325Z,18.63
2022-10-02T17:26:51.369Z,15.30
2022-10-02T17:30:00.096Z,26.43
2022-10-02T17:33:08.247Z,18.03
2022-10-02T17:36:19.685Z,18.90
2022-10-02T17:39:34.858Z,32.10
2022-10-02T17:42:51.426Z,25.23
2022-10-02T17:46:02.707Z,23.53
2022-10-02T17:49:13.971Z,29.33
2022-10-02T17:52:45.996Z,21.60
2022-10-02T17:56:28.547Z,18.40
2022-10-02T18:00:02.865Z,19.50
2022-10-02T18:03:26.303Z,19.40
2022-10-02T18:06:38.030Z,26.50
2022-10-02T18:10:02.424Z,19.43
2022-10-02T18:13:19.198Z,23.17
2022-10-02T18:16:32.332Z,23.37
2022-10-02T18:19:49.641Z,21.27
2022-10-02T18:23:07.608Z,24.27
2022-10-02T18:26:24.343Z,15.00
2022-10-02T18:29:44.059Z,20.80
2022-10-02T18:33:15.156Z,22.13
2022-10-02T18:36:37.191Z,26.20
2022-10-02T18:39:44.705Z,26.67
2022-10-02T18:43:02.251Z,26.27
2022-10-02T18:46:15.862Z,21.20
2022-10-02T18:49:39.036Z,23.93
2022-10-02T18:53:10.077Z,22.00
2022-10-02T18:56:13.517Z,21.80
2022-10-02T18:59:30.025Z,26.00
2022-10-02T19:02:48.577Z,29.00
2022-10-02T19:05:56.239Z,22.90
2022-10-02T19:09:12.718Z,15.60
2022-10-02T19:12:18.577Z,15.80
2022-10-02T19:15:27.029Z,18.13
2022-10-02T19:18:32.792Z,17.17
2022-10-02T19:21:38.360Z,20.17
2022-10-02T19:24:44.810Z,18.73
2022-10-02T19:27:51.072Z,22.20
2022-10-02T19:30:57.384Z,20.80
2022-10-02T19:34:04.193Z,13.60
2022-10-02T19:37:08.239Z,17.53
2022-10-02T19:40:16.817Z,16.97
2022-10-02T19:43:24.344Z,21.87
2022-10-02T19:46:35.070Z,16.77
2022-10-02T19:49:41.437Z,23.00
2022-10-02T19:52:52.162Z,20.03
2022-10-02T19:55:57.378Z,23.87
2022-10-02T19:59:06.559Z,22.67
2022-10-02T20:02:17.792Z,29.20
2022-10-02T20:05:23.828Z,26.27
2022-10-02T20:08:31.629Z,21.73
2022-10-02T20:11:39.569Z,31.90
2022-10-02T20:14:47.305Z,30.13
2022-10-02T20:17:49.338Z,26.50
2022-10-02T20:20:56.726Z,22.43
2022-10-02T20:24:04.995Z,26.00
2022-10-02T20:27:15.593Z,22.73
2022-10-02T20:30:20.879Z,15.33
2022-10-02T20:33:28.067Z,31.67
2022-10-02T20:36:38.383Z,23.53
2022-10-02T20:39:48.126Z,18.87
2022-10-02T20:42:58.205Z,18.23
2022-10-02T20:46:24.642Z,12.83
2022-10-02T20:49:52.719Z,21.47
2022-10-02T20:53:29.103Z,17.90
2022-10-02T20:57:01.928Z,18.90
2022-10-02T21:00:11.927Z,20.77
2022-10-02T21:03:31.881Z,21.50
2022-10-02T21:06:52.094Z,17.33
2022-10-02T21:10:14.893Z,18.03
2022-10-02T21:13:47.503Z,21.40
2022-10-02T21:17:18.812Z,27.70
2022-10-02T21:21:01.762Z,19.30
2022-10-02T21:24:30.407Z,25.73
2022-10-02T21:27:59.634Z,14.00
2022-10-02T21:31:20.144Z,21.37
2022-10-02T21:34:36.389Z,15.57
2022-10-02T21:37:56.207Z,23.13
2022-10-02T21:41:48.505Z,16.47
2022-10-02T21:45:34.165Z,14.13
2022-10-02T21:49:21.183Z,18.80
2022-10-02T21:53:11.208Z,19.50
2022-10-02T21:56:40.022Z,20.60
2022-10-02T22:00:13.876Z,20.13
2022-10-02T22:03:46.403Z,16.50
2022-10-02T22:06:56.643Z,15.20
2022-10-02T22:10:04.289Z,16.53
2022-10-02T22:13:20.908Z,24.53
2022-10-02T22:16:36.479Z,15.47
2022-10-02T22:20:00.868Z,17.67
2022-10-02T22:23:20.864Z,21.17
2022-10-02T22:26:40.231Z,18.47
2022-10-02T22:29:47.694Z,17.73
2022-10-02T22:33:17.277Z,14.30
2022-10-02T22:36:55.857Z,16.47
2022-10-02T22:40:05.943Z,15.43
2022-10-02T22:43:10.710Z,16.67
2022-10-02T22:46:25.609Z,16.43
2022-10-02T22:49:34.088Z,18.03
2022-10-02T22:52:47.265Z,18.10
2022-10-02T22:55:54.410Z,21.73
2022-10-02T22:59:06.538Z,25.37
2022-10-02T23:02:12.972Z,19.93
2022-10-02T23:05:24.446Z,16.73
2022-10-02T23:08:34.322Z,12.10
2022-10-02T23:11:44.940Z,9.73
2022-10-02T23:15:00.282Z,18.33
2022-10-02T23:18:07.288Z,15.33
2022-10-02T23:21:24.153Z,20.33
2022-10-02T23:24:32.234Z,11.67
2022-10-02T23:27:43.534Z,14.00
2022-10-02T23:30:50.252Z,21.13
2022-10-02T23:33:59.699Z,15.17
2022-10-02T23:37:13.595Z,15.50
2022-10-02T23:40:43.793Z,21.30
2022-10-02T23:43:55.489Z,14.87
2022-10-02T23:47:08.076Z,21.97
2022-10-02T23:50:22.684Z,14.43
2022-10-02T23:53:42.881Z,16.50
2022-10-02T23:57:05.468Z,13.10
